Time;durP1;ratioP1;P1;durP2;ratioP2;P2;SDS_P1;SDS_P2;PMS_P1;PMS_P2;Temp;Humidity;BMP_temperature;BMP_pressure;BME280_temperature;BME280_humidity;BME280_pressure;Samples;Min_cycle;Max_cycle;Signal;HPM_P1;HPM_P2
2021/10/20 00:00:23;;;;;;;31.55;14.73;;;;;;;9.08;68.97;102130.95;1758744;78;21517;-56
2021/10/20 00:02:50;;;;;;;23.38;12.00;;;;;;;9.11;69.12;102134.06;1756397;79;21670;-55
2021/10/20 00:05:19;;;;;;;24.40;13.40;;;;;;;9.15;69.33;102132.67;1751185;80;21076;-62
2021/10/20 00:07:46;;;;;;;22.93;12.68;;;;;;;9.21;69.28;102129.54;1748648;80;21054;-63
2021/10/20 00:10:16;;;;;;;24.00;12.80;;;;;;;9.25;69.20;102131.29;1739884;80;21052;-63
2021/10/20 00:12:44;;;;;;;21.45;11.85;;;;;;;9.27;69.19;102128.15;1742290;80;21093;-64
2021/10/20 00:15:14;;;;;;;22.93;12.45;;;;;;;9.28;69.18;102116.11;1750411;80;21870;-64
2021/10/20 00:17:41;;;;;;;23.62;11.88;;;;;;;9.28;69.25;102127.25;1750660;80;21454;-63
2021/10/20 00:20:12;;;;;;;24.25;12.98;;;;;;;9.30;69.38;102136.15;1751623;80;21536;-63
2021/10/20 00:22:39;;;;;;;23.30;12.10;;;;;;;9.29;69.41;102128.59;1741593;80;21096;-63
2021/10/20 00:25:07;;;;;;;24.32;13.20;;;;;;;9.29;69.55;102131.27;1753285;80;21047;-55
2021/10/20 00:27:34;;;;;;;24.63;12.90;;;;;;;9.28;69.60;102131.27;1743038;80;20983;-57
2021/10/20 00:30:03;;;;;;;27.32;13.50;;;;;;;9.23;69.70;102124.59;1748314;80;21109;-55
2021/10/20 00:32:31;;;;;;;26.50;12.85;;;;;;;9.19;69.91;102125.99;1750016;80;21489;-55
2021/10/20 00:34:58;;;;;;;29.60;13.55;;;;;;;9.16;70.23;102126.42;1755311;80;21087;-63
2021/10/20 00:37:25;;;;;;;24.15;12.30;;;;;;;9.21;70.47;102124.19;1746122;80;21530;-63
2021/10/20 00:39:51;;;;;;;24.70;12.23;;;;;;;9.25;70.55;102124.59;1748490;80;21134;-56
2021/10/20 00:42:23;;;;;;;24.77;13.75;;;;;;;9.26;70.67;102118.34;1745621;80;21011;-55
2021/10/20 00:44:56;;;;;;;22.22;12.75;;;;;;;9.27;70.76;102116.97;1749290;80;21097;-55
2021/10/20 00:47:23;;;;;;;23.65;13.25;;;;;;;9.29;70.98;102108.95;1749624;80;21106;-55
2021/10/20 00:49:51;;;;;;;25.57;13.98;;;;;;;9.31;71.17;102110.72;1748588;80;20975;-63
2021/10/20 00:52:20;;;;;;;27.50;13.55;;;;;;;9.33;71.24;102110.69;1752779;80;21196;-62
2021/10/20 00:54:47;;;;;;;27.00;13.65;;;;;;;9.35;71.40;102108.89;1752836;80;21051;-55
2021/10/20 00:57:14;;;;;;;23.90;14.15;;;;;;;9.40;71.43;102106.19;1746561;80;21143;-55
2021/10/20 00:59:41;;;;;;;23.87;12.98;;;;;;;9.46;71.31;102108.80;1747931;80;21019;-55
2021/10/20 01:02:08;;;;;;;25.97;13.25;;;;;;;9.50;71.22;102109.20;1742241;80;21041;-61
2021/10/20 01:04:37;;;;;;;28.55;13.45;;;;;;;9.54;71.05;102106.97;1743907;80;21197;-55
2021/10/20 01:07:05;;;;;;;23.47;12.98;;;;;;;9.56;70.91;102117.64;1743641;80;21054;-55
2021/10/20 01:09:32;;;;;;;27.22;13.70;;;;;;;9.59;70.86;102109.58;1751356;80;21051;-55
2021/10/20 01:12:00;;;;;;;28.67;13.62;;;;;;;9.63;70.70;102118.48;1745554;80;21117;-62
2021/10/20 01:14:29;;;;;;;35.40;14.80;;;;;;;9.64;70.65;102111.79;1743275;81;21049;-63
2021/10/20 01:16:57;;;;;;;27.50;14.70;;;;;;;9.67;70.69;102113.53;1759432;80;21158;-55
2021/10/20 01:19:24;;;;;;;36.45;15.18;;;;;;;9.67;70.94;102112.19;1752235;80;21061;-56
2021/10/20 01:21:52;;;;;;;29.75;14.28;;;;;;;9.69;71.00;102111.28;1753926;80;21092;-63
2021/10/20 01:24:20;;;;;;;30.65;14.78;;;;;;;9.70;71.09;102109.48;1741372;80;21054;-63
2021/10/20 01:26:51;;;;;;;28.42;15.05;;;;;;;9.66;71.13;102109.98;1745947;80;21033;-62
2021/10/20 01:29:19;;;;;;;32.10;14.28;;;;;;;9.67;71.29;102105.06;1744569;80;21144;-63
2021/10/20 01:31:49;;;;;;;26.02;13.28;;;;;;;9.65;71.31;102103.28;1752984;80;21061;-55
2021/10/20 01:34:16;;;;;;;29.63;14.10;;;;;;;9.65;71.49;102109.55;1750038;80;21393;-63
2021/10/20 01:36:45;;;;;;;30.23;15.00;;;;;;;9.66;71.52;102109.98;1737713;80;20979;-55
2021/10/20 01:39:12;;;;;;;26.10;14.30;;;;;;;9.66;71.59;102108.64;1752835;80;21222;-56
2021/10/20 01:41:39;;;;;;;33.88;14.80;;;;;;;9.68;71.71;102110.84;1751723;80;21172;-56
2021/10/20 01:44:07;;;;;;;25.60;13.35;;;;;;;9.70;71.71;102107.70;1750870;80;21036;-56
2021/10/20 01:46:34;;;;;;;27.32;13.68;;;;;;;9.72;71.78;102105.89;1746048;80;21437;-63
2021/10/20 01:49:01;;;;;;;22.13;12.63;;;;;;;9.73;71.75;102099.63;1745418;80;21424;-56
2021/10/20 01:51:28;;;;;;;34.48;14.10;;;;;;;9.74;71.82;102104.09;1745308;80;21082;-55
2021/10/20 01:53:55;;;;;;;33.00;15.03;;;;;;;9.74;71.76;102104.09;1744825;80;21829;-55
2021/10/20 01:56:22;;;;;;;25.52;12.95;;;;;;;9.74;71.70;102101.88;1746490;81;21050;-55
2021/10/20 01:58:49;;;;;;;29.25;13.28;;;;;;;9.70;71.75;102105.02;1754716;80;21433;-56
2021/10/20 02:01:16;;;;;;;35.20;13.90;;;;;;;9.66;71.70;102101.04;1751535;80;21029;-55
2021/10/20 02:03:45;;;;;;;27.52;13.50;;;;;;;9.68;71.85;102097.46;1754424;80;21098;-56
2021/10/20 02:06:15;;;;;;;25.57;13.65;;;;;;;9.74;71.57;102105.89;1741183;79;21202;-63
2021/10/20 02:08:44;;;;;;;24.98;12.65;;;;;;;9.75;71.57;102104.52;1746131;79;21094;-55
2021/10/20 02:11:11;;;;;;;25.80;13.35;;;;;;;9.82;71.36;102102.67;1751857;79;21006;-56
2021/10/20 02:13:39;;;;;;;21.60;11.78;;;;;;;9.85;71.29;102101.77;1753578;79;21044;-62
2021/10/20 02:16:06;;;;;;;28.07;13.90;;;;;;;9.89;71.35;102103.03;1750169;79;21038;-55
2021/10/20 02:18:33;;;;;;;25.30;12.75;;;;;;;9.94;71.07;102106.11;1750715;79;21059;-56
2021/10/20 02:21:02;;;;;;;24.80;13.13;;;;;;;9.90;71.01;102097.24;1780389;79;21539;-55
2021/10/20 02:23:32;;;;;;;25.68;13.43;;;;;;;9.90;71.13;102097.24;1779752;79;21059;-56
2021/10/20 02:25:59;;;;;;;21.82;13.10;;;;;;;9.94;71.31;102101.66;1781307;79;21048;-62
2021/10/20 02:28:26;;;;;;;25.32;14.20;;;;;;;9.98;71.32;102102.06;1780744;79;21405;-63
2021/10/20 02:30:54;;;;;;;27.13;13.98;;;;;;;10.01;71.16;102093.98;1778852;79;21195;-63
2021/10/20 02:33:23;;;;;;;26.17;12.58;;;;;;;9.99;71.09;102093.11;1765432;79;21055;-63
2021/10/20 02:35:50;;;;;;;23.50;13.55;;;;;;;9.96;71.42;102078.41;1746997;79;21433;-63
2021/10/20 02:38:17;;;;;;;25.75;14.23;;;;;;;10.02;71.52;102082.83;1748718;79;21014;-55
2021/10/20 02:40:44;;;;;;;23.75;13.95;;;;;;;10.02;71.32;102074.31;1744876;79;21418;-56
2021/10/20 02:43:12;;;;;;;23.35;14.10;;;;;;;9.95;71.34;102075.77;1742320;79;21780;-56
2021/10/20 02:45:39;;;;;;;23.62;12.88;;;;;;;9.89;71.75;102084.75;1748531;79;21065;-56
2021/10/20 02:48:06;;;;;;;28.98;14.40;;;;;;;9.92;72.57;102087.39;1740746;81;20996;-62
2021/10/20 02:50:33;;;;;;;27.30;14.30;;;;;;;10.06;72.63;102087.67;1738972;79;21046;-55
2021/10/20 02:53:00;;;;;;;31.87;14.90;;;;;;;10.07;72.47;102082.31;1750077;79;21144;-55
2021/10/20 02:55:27;;;;;;;26.45;13.85;;;;;;;10.09;72.71;102080.97;1755994;79;21126;-63
2021/10/20 02:57:55;;;;;;;27.67;14.28;;;;;;;10.10;72.56;102089.44;1736960;81;21079;-63
2021/10/20 03:00:21;;;;;;;26.55;13.53;;;;;;;10.08;72.50;102096.61;1743949;81;21068;-55
2021/10/20 03:02:50;;;;;;;26.75;13.62;;;;;;;10.00;72.20;102093.55;1753108;79;21054;-55
2021/10/20 03:05:17;;;;;;;25.27;14.20;;;;;;;9.93;72.09;102097.20;1745436;79;21052;-63
2021/10/20 03:07:50;;;;;;;35.68;15.38;;;;;;;9.86;71.95;102099.52;1753142;80;21496;-63
2021/10/20 03:10:17;;;;;;;32.83;15.32;;;;;;;9.75;71.81;102095.15;1749380;80;20989;-63
2021/10/20 03:12:44;;;;;;;30.30;15.00;;;;;;;9.62;71.90;102092.61;1751810;80;21145;-55
2021/10/20 03:15:12;;;;;;;30.68;14.15;;;;;;;9.50;72.25;102085.11;1748108;80;21058;-63
2021/10/20 03:17:38;;;;;;;30.32;15.83;;;;;;;9.41;72.59;102086.11;1751139;80;21013;-56
2021/10/20 03:20:08;;;;;;;23.32;14.30;;;;;;;9.36;72.89;102085.70;1748946;80;21133;-55
2021/10/20 03:22:42;;;;;;;27.67;15.05;;;;;;;9.30;73.16;102087.97;1739416;80;21045;-55
2021/10/20 03:25:11;;;;;;;31.07;15.63;;;;;;;9.23;73.40;102079.56;1747793;80;21084;-55
2021/10/20 03:27:50;;;;;;;29.05;13.58;;;;;;;9.17;73.70;102092.10;1745597;80;21100;-55
2021/10/20 03:30:20;;;;;;;34.98;14.70;;;;;;;9.16;74.19;102095.65;1750819;80;21043;-63
2021/10/20 03:32:47;;;;;;;28.05;14.47;;;;;;;9.16;74.19;102082.27;1752614;80;21522;-55
2021/10/20 03:35:16;;;;;;;32.40;14.03;;;;;;;9.13;74.47;102083.63;1747774;80;21287;-55
2021/10/20 03:37:43;;;;;;;22.62;13.85;;;;;;;9.13;74.64;102082.30;1753056;80;20985;-63
2021/10/20 03:40:11;;;;;;;25.43;14.43;;;;;;;9.14;74.81;102085.41;1751155;80;21121;-63
2021/10/20 03:42:38;;;;;;;24.43;12.50;;;;;;;9.18;75.07;102086.28;1752398;80;21603;-63
2021/10/20 03:45:06;;;;;;;23.22;12.63;;;;;;;9.26;75.25;102082.22;1749398;80;21979;-63
2021/10/20 03:47:33;;;;;;;22.40;12.65;;;;;;;9.41;75.44;102089.22;1753957;80;21108;-55
2021/10/20 03:50:01;;;;;;;23.35;12.98;;;;;;;9.57;75.31;102093.98;1748006;80;21435;-62
2021/10/20 03:52:28;;;;;;;28.32;13.78;;;;;;;9.69;75.05;102092.54;1751878;80;21113;-57
2021/10/20 03:54:55;;;;;;;22.55;13.00;;;;;;;9.81;74.64;102095.98;1751348;80;21114;-56
2021/10/20 03:57:22;;;;;;;34.95;16.02;;;;;;;9.86;74.08;102091.48;1743951;80;21121;-56
2021/10/20 03:59:49;;;;;;;33.67;16.02;;;;;;;9.89;73.70;102095.47;1747409;80;21031;-62
2021/10/20 04:02:16;;;;;;;34.05;15.60;;;;;;;9.86;73.35;102091.02;1753692;80;21036;-63
2021/10/20 04:04:43;;;;;;;32.85;15.10;;;;;;;9.81;73.34;102093.30;1743348;80;21164;-63
2021/10/20 04:07:10;;;;;;;35.08;14.58;;;;;;;9.77;73.23;102091.13;1742068;80;21106;-63
2021/10/20 04:09:39;;;;;;;27.22;15.23;;;;;;;9.75;73.16;102088.45;1744954;80;21100;-55
2021/10/20 04:12:06;;;;;;;27.00;14.18;;;;;;;9.74;73.06;102092.03;1745053;80;21062;-56
2021/10/20 04:14:33;;;;;;;34.95;16.20;;;;;;;9.77;72.92;102091.56;1742901;81;21076;-55
2021/10/20 04:17:00;;;;;;;36.50;17.17;;;;;;;9.80;72.66;102092.87;1752018;80;21633;-63
2021/10/20 04:19:27;;;;;;;45.52;19.00;;;;;;;9.81;72.56;102099.56;1747087;80;21037;-56
2021/10/20 04:21:54;;;;;;;46.00;18.87;;;;;;;9.82;72.66;102097.75;1747917;80;21589;-63
2021/10/20 04:24:21;;;;;;;50.33;23.55;;;;;;;9.80;72.91;102094.20;1746511;80;21030;-55
2021/10/20 04:26:48;;;;;;;44.25;22.48;;;;;;;9.81;72.91;102100.00;1752338;80;21292;-55
2021/10/20 04:29:16;;;;;;;62.03;25.12;;;;;;;9.82;73.00;102091.05;1746281;80;21118;-62
2021/10/20 04:31:42;;;;;;;66.85;28.00;;;;;;;9.86;72.63;102094.17;1741501;80;21147;-64
2021/10/20 04:34:10;;;;;;;55.58;24.02;;;;;;;9.86;72.93;102094.17;1752638;80;21602;-56
2021/10/20 04:36:37;;;;;;;42.75;21.07;;;;;;;9.85;72.83;102103.98;1745872;80;21113;-55
2021/10/20 04:39:03;;;;;;;61.37;22.32;;;;;;;9.87;72.43;102099.48;1752157;80;21031;-56
2021/10/20 04:41:31;;;;;;;84.58;24.63;;;;;;;9.99;72.09;102103.83;1749749;81;21072;-63
2021/10/20 04:43:58;;;;;;;42.45;19.30;;;;;;;10.10;72.06;102101.03;1751327;80;21157;-56
2021/10/20 04:46:24;;;;;;;71.80;24.55;;;;;;;10.17;72.05;102100.08;1737622;80;21516;-56
2021/10/20 04:48:52;;;;;;;79.15;23.50;;;;;;;10.32;71.79;102094.98;1748966;80;21039;-55
2021/10/20 04:51:19;;;;;;;43.75;16.57;;;;;;;10.57;72.08;102095.13;1737297;80;21099;-56
2021/10/20 04:53:46;;;;;;;36.03;16.37;;;;;;;10.85;71.47;102087.59;1739272;80;21085;-57
2021/10/20 04:56:12;;;;;;;31.93;16.07;;;;;;;11.06;70.08;102090.86;1751309;80;21044;-55
2021/10/20 04:58:39;;;;;;;29.85;14.70;;;;;;;11.16;69.36;102097.87;1751814;80;21226;-55
2021/10/20 05:01:06;;;;;;;36.45;16.73;;;;;;;11.23;68.40;102091.05;1752624;80;21640;-56
2021/10/20 05:03:33;;;;;;;27.00;15.18;;;;;;;11.27;68.35;102096.80;1749785;80;21090;-55
2021/10/20 05:06:00;;;;;;;28.70;14.93;;;;;;;11.34;68.61;102101.61;1748499;81;21378;-56
2021/10/20 05:08:27;;;;;;;34.35;16.02;;;;;;;11.37;68.60;102102.43;1746254;80;21051;-64
2021/10/20 05:10:57;;;;;;;40.75;17.32;;;;;;;11.42;68.64;102107.30;1751563;80;21086;-56
2021/10/20 05:13:25;;;;;;;94.47;24.40;;;;;;;11.46;68.66;102106.77;1742545;80;22378;-55
2021/10/20 05:15:52;;;;;;;86.80;26.77;;;;;;;11.48;68.71;102105.41;1751199;80;21082;-64
2021/10/20 05:18:19;;;;;;;106.70;28.60;;;;;;;11.48;68.85;102109.44;1736755;80;21076;-63
2021/10/20 05:20:47;;;;;;;50.43;19.10;;;;;;;11.48;69.15;102107.63;1751679;80;21550;-56
2021/10/20 05:23:16;;;;;;;90.97;27.30;;;;;;;11.49;69.23;102113.42;1746800;80;21128;-56
2021/10/20 05:25:43;;;;;;;35.83;17.00;;;;;;;11.54;69.28;102119.62;1748528;80;21057;-55
2021/10/20 05:28:11;;;;;;;29.82;14.87;;;;;;;11.56;69.13;102120.92;1755693;78;20972;-64
2021/10/20 05:30:38;;;;;;;39.13;17.62;;;;;;;11.60;68.50;102119.95;1740931;80;22518;-56
2021/10/20 05:33:05;;;;;;;88.17;23.60;;;;;;;11.65;68.46;102129.28;1743408;80;21037;-55
2021/10/20 05:35:32;;;;;;;30.37;15.00;;;;;;;11.67;68.08;102129.70;1751158;80;21136;-56
2021/10/20 05:37:59;;;;;;;29.15;15.20;;;;;;;11.69;67.56;102131.90;1743877;80;21553;-64
2021/10/20 05:40:26;;;;;;;24.85;13.85;;;;;;;11.74;67.43;102139.41;1735228;81;21016;-56
2021/10/20 05:42:53;;;;;;;28.05;14.47;;;;;;;11.83;67.13;102144.22;1735009;80;21064;-55
2021/10/20 05:45:20;;;;;;;46.88;18.67;;;;;;;11.93;67.12;102147.59;1740876;80;21056;-56
2021/10/20 05:47:47;;;;;;;68.50;23.83;;;;;;;12.02;66.61;102157.75;1745336;80;21071;-56
2021/10/20 05:50:15;;;;;;;69.62;23.57;;;;;;;12.03;67.29;102163.55;1740757;80;21058;-56
2021/10/20 05:52:43;;;;;;;28.87;14.98;;;;;;;11.99;67.90;102160.47;1745865;80;21036;-56
2021/10/20 05:55:10;;;;;;;24.75;14.50;;;;;;;11.97;66.98;102163.64;1744198;80;21182;-57
2021/10/20 05:57:38;;;;;;;57.93;22.25;;;;;;;11.97;66.68;102163.64;1743575;80;21034;-63
2021/10/20 06:00:10;;;;;;;32.30;17.77;;;;;;;12.02;66.56;102160.91;1742771;80;40057;-63
2021/10/20 06:02:40;;;;;;;36.65;18.27;;;;;;;12.03;66.70;102163.55;1743141;80;21095;-56
2021/10/20 06:05:08;;;;;;;34.83;18.65;;;;;;;12.04;66.27;102169.36;1747240;79;21369;-62
2021/10/20 06:07:41;;;;;;;43.92;19.60;;;;;;;12.08;66.67;102171.55;1742426;79;21489;-64
2021/10/20 06:10:09;;;;;;;36.17;20.10;;;;;;;12.14;66.82;102172.77;1748424;79;20877;-64
2021/10/20 06:12:40;;;;;;;43.70;19.77;;;;;;;12.22;66.88;102168.59;1760682;79;21090;-65
2021/10/20 06:15:10;;;;;;;38.23;20.88;;;;;;;12.28;67.31;102168.94;1755484;79;20977;-64
2021/10/20 06:17:37;;;;;;;52.03;22.60;;;;;;;12.31;67.60;102171.12;1754979;79;21080;-64
2021/10/20 06:20:07;;;;;;;59.63;23.73;;;;;;;12.37;67.82;102169.22;1756109;79;21072;-56
2021/10/20 06:22:34;;;;;;;47.88;21.40;;;;;;;12.45;67.92;102164.56;1748211;79;21041;-56
2021/10/20 06:25:02;;;;;;;51.55;20.15;;;;;;;12.52;67.89;102165.33;1749029;79;21666;-57
2021/10/20 06:27:29;;;;;;;58.87;20.60;;;;;;;12.55;67.82;102167.95;1745820;79;21068;-57
2021/10/20 06:29:57;;;;;;;53.65;20.32;;;;;;;12.59;67.92;102167.86;1749256;79;21040;-56
2021/10/20 06:32:31;;;;;;;51.55;19.57;;;;;;;12.65;68.17;102175.38;1745631;79;21035;-64
2021/10/20 06:35:01;;;;;;;44.30;20.55;;;;;;;12.75;68.41;102174.27;1751053;79;21070;-56
2021/10/20 06:37:32;;;;;;;52.33;21.25;;;;;;;12.84;68.67;102182.14;1751535;79;21508;-63
2021/10/20 06:40:00;;;;;;;59.58;20.82;;;;;;;12.92;68.97;102175.69;1751803;79;21537;-64
2021/10/20 06:42:28;;;;;;;46.35;20.02;;;;;;;13.00;69.13;102179.13;1750360;79;21060;-63
2021/10/20 06:44:56;;;;;;;51.77;21.35;;;;;;;13.08;69.23;102172.22;1744611;79;21048;-64
2021/10/20 06:47:25;;;;;;;47.38;20.17;;;;;;;13.21;69.19;102176.86;1746573;79;21577;-64
2021/10/20 06:49:53;;;;;;;38.38;21.00;;;;;;;13.28;69.29;102178.48;1742105;79;22208;-63
2021/10/20 06:52:20;;;;;;;46.08;20.65;;;;;;;13.37;69.34;102182.28;1749517;79;20886;-63
2021/10/20 06:54:47;;;;;;;35.08;19.02;;;;;;;13.50;69.39;102186.08;1761550;79;21107;-63
2021/10/20 06:57:14;;;;;;;34.92;18.27;;;;;;;13.60;69.35;102183.59;1771479;79;21488;-64
2021/10/20 06:59:43;;;;;;;36.90;18.12;;;;;;;13.71;69.19;102178.80;1772777;79;20860;-64
2021/10/20 07:02:10;;;;;;;40.40;18.50;;;;;;;13.83;69.11;102182.13;1758779;79;21531;-64
2021/10/20 07:04:37;;;;;;;40.67;18.73;;;;;;;13.89;69.06;102186.01;1754854;79;21024;-56
2021/10/20 07:07:06;;;;;;;41.05;18.42;;;;;;;13.97;69.12;102188.03;1745272;80;21123;-56
2021/10/20 07:09:33;;;;;;;43.17;18.07;;;;;;;14.09;69.20;102188.64;1744565;80;21106;-57
2021/10/20 07:12:00;;;;;;;36.23;18.25;;;;;;;14.21;69.14;102190.98;1743896;79;21110;-56
2021/10/20 07:14:28;;;;;;;27.67;16.67;;;;;;;14.29;69.15;102195.73;1741575;80;21103;-63
2021/10/20 07:16:58;;;;;;;29.05;16.12;;;;;;;14.39;69.06;102186.92;1742825;80;21145;-63
2021/10/20 07:19:27;;;;;;;31.77;15.98;;;;;;;14.48;68.99;102193.87;1738412;80;21120;-56
2021/10/20 07:21:54;;;;;;;30.15;16.80;;;;;;;14.56;68.63;102197.22;1745448;80;21691;-62
2021/10/20 07:24:21;;;;;;;35.13;16.70;;;;;;;14.62;68.69;102190.77;1736305;80;21597;-63
2021/10/20 07:26:48;;;;;;;24.77;16.55;;;;;;;14.67;68.56;102191.96;1739794;80;21522;-56
2021/10/20 07:29:16;;;;;;;26.50;15.98;;;;;;;14.74;68.39;102187.72;1742870;80;21540;-56
2021/10/20 07:31:43;;;;;;;26.15;16.37;;;;;;;14.83;67.89;102186.56;1746507;80;21223;-57
2021/10/20 07:34:11;;;;;;;26.65;15.85;;;;;;;14.92;67.69;102187.20;1748802;80;21098;-57
2021/10/20 07:36:38;;;;;;;29.55;15.93;;;;;;;15.03;67.31;102182.37;1750142;79;20992;-57
2021/10/20 07:39:06;;;;;;;27.05;16.37;;;;;;;15.09;66.99;102179.48;1747142;79;21124;-57
2021/10/20 07:41:33;;;;;;;32.08;16.45;;;;;;;15.18;66.86;102176.50;1767819;79;21033;-57
2021/10/20 07:44:02;;;;;;;27.20;15.45;;;;;;;15.29;66.68;102174.81;1749191;80;21784;-56
2021/10/20 07:46:29;;;;;;;24.67;15.40;;;;;;;15.39;66.31;102174.50;1759635;80;20945;-64
2021/10/20 07:48:57;;;;;;;29.18;15.53;;;;;;;15.46;66.11;102176.05;1762138;80;21199;-56
2021/10/20 07:51:24;;;;;;;29.20;15.15;;;;;;;15.54;65.86;102179.86;1759341;79;21589;-56
2021/10/20 07:53:51;;;;;;;27.93;15.10;;;;;;;15.60;65.76;102171.57;1739029;80;22157;-55
2021/10/20 07:56:18;;;;;;;26.00;15.98;;;;;;;15.68;65.63;102166.78;1737053;80;20967;-63
2021/10/20 07:58:45;;;;;;;23.77;15.45;;;;;;;15.78;65.35;102173.20;1734804;80;21545;-63
2021/10/20 08:01:12;;;;;;;27.52;16.00;;;;;;;15.85;65.32;102172.95;1770524;79;21111;-62
2021/10/20 08:03:40;;;;;;;26.40;14.70;;;;;;;15.99;65.12;102168.92;1763658;79;21235;-66
2021/10/20 08:06:07;;;;;;;27.22;14.47;;;;;;;16.08;64.65;102171.77;1765896;79;21497;-64
2021/10/20 08:08:36;;;;;;;24.72;13.72;;;;;;;16.17;64.33;102171.43;1764939;79;21033;-65
2021/10/20 08:11:03;;;;;;;21.52;12.35;;;;;;;16.31;63.44;102163.70;1762132;79;21457;-55
2021/10/20 08:13:30;;;;;;;20.10;12.53;;;;;;;16.42;61.66;102165.12;1757065;79;21530;-55
2021/10/20 08:15:58;;;;;;;20.62;12.43;;;;;;;16.46;61.25;102162.70;1758978;79;21175;-56
2021/10/20 08:18:25;;;;;;;21.10;11.30;;;;;;;16.47;60.62;102159.09;1760117;79;21159;-64
2021/10/20 08:20:53;;;;;;;21.40;11.03;;;;;;;16.50;59.53;102158.97;1758292;79;21134;-63
2021/10/20 08:23:23;;;;;;;16.02;10.00;;;;;;;16.52;58.68;102161.14;1756110;79;21118;-65
2021/10/20 08:25:52;;;;;;;16.62;10.13;;;;;;;16.56;58.32;102160.08;1747103;80;21091;-64
2021/10/20 08:28:19;;;;;;;15.15;9.88;;;;;;;16.60;58.01;102162.20;1769693;80;21262;-62
2021/10/20 08:30:46;;;;;;;14.03;9.20;;;;;;;16.65;57.59;102162.02;1755748;79;21071;-57
2021/10/20 08:33:14;;;;;;;18.07;9.78;;;;;;;16.70;57.26;102158.68;1770102;79;21113;-63
2021/10/20 08:35:42;;;;;;;16.90;10.08;;;;;;;16.73;57.02;102160.78;1774345;79;21055;-64
2021/10/20 08:38:16;;;;;;;15.50;9.70;;;;;;;16.72;56.94;102159.50;1770242;79;21122;-56
2021/10/20 08:40:46;;;;;;;14.80;9.40;;;;;;;16.69;56.80;102155.53;1752478;80;21672;-56
2021/10/20 08:43:15;;;;;;;17.12;9.33;;;;;;;16.70;56.87;102154.62;1751499;79;21051;-56
2021/10/20 08:45:44;;;;;;;15.32;8.70;;;;;;;16.66;56.71;102157.91;1733905;81;21078;-56
2021/10/20 08:48:18;;;;;;;16.75;8.85;;;;;;;16.64;57.05;102149.41;1750973;79;21420;-55
2021/10/20 08:50:47;;;;;;;16.07;8.88;;;;;;;16.61;57.19;102145.89;1766554;79;21082;-57
2021/10/20 08:53:18;;;;;;;15.28;8.50;;;;;;;16.56;57.21;102143.83;1770075;79;21110;-57
2021/10/20 08:55:48;;;;;;;15.35;8.53;;;;;;;16.49;57.60;102139.60;1756141;79;21339;-58
2021/10/20 08:58:18;;;;;;;15.00;8.53;;;;;;;16.44;57.85;102138.87;1739510;80;21396;-57
2021/10/20 09:00:45;;;;;;;17.67;8.65;;;;;;;16.37;58.24;102131.93;1755047;79;21000;-63
2021/10/20 09:03:13;;;;;;;16.37;8.90;;;;;;;16.31;58.69;102133.94;1754853;79;20973;-64
2021/10/20 09:05:40;;;;;;;13.05;8.13;;;;;;;16.35;58.97;102132.46;1758913;79;22375;-57
2021/10/20 09:08:08;;;;;;;22.32;8.75;;;;;;;16.37;59.13;102126.52;1744038;79;20957;-56
2021/10/20 09:10:35;;;;;;;18.37;8.93;;;;;;;16.39;59.28;102130.95;1739357;80;21059;-65
2021/10/20 09:13:03;;;;;;;13.13;7.80;;;;;;;16.42;59.30;102133.98;1736483;80;21435;-57
2021/10/20 09:15:34;;;;;;;15.83;8.50;;;;;;;16.41;59.22;102122.75;1728442;80;20926;-57
2021/10/20 09:18:07;;;;;;;17.05;8.33;;;;;;;16.40;59.50;102120.53;1734376;80;21676;-56
2021/10/20 09:20:39;;;;;;;14.93;8.75;;;;;;;16.43;59.70;102128.98;1722031;80;21558;-56
2021/10/20 09:23:17;;;;;;;12.85;7.92;;;;;;;16.43;59.92;102128.53;1742317;79;21082;-56
2021/10/20 09:25:57;;;;;;;12.23;7.55;;;;;;;16.43;60.01;102120.86;1736410;80;21075;-56
2021/10/20 09:28:31;;;;;;;11.48;7.53;;;;;;;16.43;59.78;102110.94;1744275;80;21159;-63
2021/10/20 09:30:59;;;;;;;12.93;7.58;;;;;;;16.39;59.20;102113.80;1732613;80;21474;-56
2021/10/20 09:33:26;;;;;;;11.10;6.95;;;;;;;16.32;59.01;102109.09;1721106;81;21061;-64
2021/10/20 09:35:54;;;;;;;12.68;6.95;;;;;;;16.26;59.35;102102.11;1721495;79;21677;-63
2021/10/20 09:38:21;;;;;;;15.08;7.55;;;;;;;16.21;59.52;102091.91;1735391;80;21123;-64
2021/10/20 09:40:49;;;;;;;12.07;6.92;;;;;;;16.22;59.68;102096.38;1735820;79;22614;-56
2021/10/20 09:43:18;;;;;;;11.48;6.78;;;;;;;16.23;59.80;102090.02;1740492;80;21847;-63
2021/10/20 09:45:46;;;;;;;11.03;6.80;;;;;;;16.27;59.97;102088.98;1740674;80;21024;-65
2021/10/20 09:48:20;;;;;;;12.78;6.58;;;;;;;16.30;59.63;102083.45;1740194;80;21133;-66
2021/10/20 09:51:07;;;;;;;11.57;7.17;;;;;;;16.33;59.82;102080.63;1732716;80;21012;-66
2021/10/20 09:53:33;;;;;;;10.80;6.97;;;;;;;16.34;60.08;102078.78;1733142;80;21099;-64
2021/10/20 09:56:31;;;;;;;12.78;6.65;;;;;;;16.35;60.06;102085.97;1728859;80;21072;-58
2021/10/20 09:59:01;;;;;;;12.73;6.90;;;;;;;16.35;60.21;102076.48;1735009;80;21569;-58
2021/10/20 10:01:30;;;;;;;11.45;6.65;;;;;;;16.35;59.49;102072.43;1739197;80;21049;-65
2021/10/20 10:03:58;;;;;;;11.53;6.50;;;;;;;16.35;59.42;102069.72;1732384;80;21660;-63
2021/10/20 10:06:28;;;;;;;15.25;6.78;;;;;;;16.37;60.12;102064.27;1738810;80;21037;-62
2021/10/20 10:08:56;;;;;;;10.30;6.05;;;;;;;16.38;60.42;102069.63;1738429;80;21970;-57
2021/10/20 10:16:24;;;;;;;13.30;6.37;;;;;;;16.27;60.32;102056.52;1738633;80;22220;-64
2021/10/20 10:19:01;;;;;;;11.00;6.60;;;;;;;16.23;60.32;102064.80;1736774;80;21096;-64
2021/10/20 10:27:00;;;;;;;9.75;6.37;;;;;;;16.18;61.72;102058.20;1730419;80;21466;-58
2021/10/20 10:29:27;;;;;;;10.30;6.35;;;;;;;16.16;60.76;102043.39;1741594;80;21670;-65
2021/10/20 10:31:57;;;;;;;12.10;6.50;;;;;;;16.15;60.61;102035.32;1746341;80;21056;-57
2021/10/20 10:34:51;;;;;;;8.50;6.17;;;;;;;16.12;60.26;102040.36;1729915;80;21547;-57
2021/10/20 10:37:32;;;;;;;11.22;6.15;;;;;;;16.11;60.47;102037.73;1740672;80;20924;-57
2021/10/20 10:43:25;;;;;;;9.40;6.03;;;;;;;16.12;61.18;102038.15;1739825;80;21094;-64
2021/10/20 10:45:54;;;;;;;10.45;6.03;;;;;;;16.09;61.15;102035.08;1736583;80;22282;-65
2021/10/20 10:48:24;;;;;;;10.03;5.87;;;;;;;16.08;61.22;102036.50;1679079;80;21992;-66
2021/10/20 10:50:57;;;;;;;10.48;6.80;;;;;;;16.07;60.72;102037.45;1703183;81;21088;-65
2021/10/20 10:53:35;;;;;;;19.12;10.13;;;;;;;16.06;60.88;102029.78;1694246;80;21174;-66
2021/10/20 10:56:14;;;;;;;10.60;6.58;;;;;;;16.10;60.51;102028.72;1741047;80;21030;-57
2021/10/20 10:59:08;;;;;;;11.35;5.75;;;;;;;16.14;60.30;102028.14;1736853;80;21125;-58
2021/10/20 11:01:43;;;;;;;12.82;6.92;;;;;;;16.15;59.82;102027.20;1723016;80;21064;-57
2021/10/20 11:04:26;;;;;;;12.75;6.33;;;;;;;16.18;58.78;102021.22;1736343;80;21065;-56
2021/10/20 11:06:55;;;;;;;14.03;6.67;;;;;;;16.11;58.07;102014.74;1734360;80;21568;-56
2021/10/20 11:09:39;;;;;;;11.10;6.28;;;;;;;16.04;58.43;102010.03;1741094;80;21107;-59
2021/10/20 11:12:08;;;;;;;12.10;6.83;;;;;;;15.98;59.73;102021.95;1734518;80;22069;-56
2021/10/20 11:14:35;;;;;;;10.32;6.80;;;;;;;15.94;60.79;102006.79;1732753;80;21098;-56
2021/10/20 11:17:11;;;;;;;9.83;6.55;;;;;;;15.94;60.60;102020.31;1749448;80;20962;-57
2021/10/20 11:19:56;;;;;;;15.38;7.08;;;;;;;15.92;60.68;102007.32;1738373;80;21079;-56
2021/10/20 11:22:23;;;;;;;13.88;6.60;;;;;;;15.89;60.88;102008.79;1733022;80;22153;-56
2021/10/20 11:24:52;;;;;;;10.60;6.95;;;;;;;15.89;59.95;101997.48;1742495;80;21095;-57
2021/10/20 11:27:23;;;;;;;11.05;7.22;;;;;;;15.87;59.72;102006.58;1722121;81;21109;-57
2021/10/20 11:29:52;;;;;;;11.83;6.92;;;;;;;15.85;59.86;102010.69;1736901;80;21628;-56
2021/10/20 11:38:35;;;;;;;11.50;6.85;;;;;;;15.84;59.10;101996.75;1739880;80;21049;-56
2021/10/20 11:41:02;;;;;;;10.20;6.78;;;;;;;15.83;59.97;101999.53;1742727;78;21507;-57